Terminal Aerodrome Forecast
Issued by NWS Lake Charles, LA

Home | Current Version | Previous Version | Text Only | Print | Product List | Glossary On
Versions: 1 2 3 4 5 6 7 8 9 10 11 12 13 14 15 16 17 18
444
FTUS44 KLCH 231934 AAA
TAFAEX
TAF AMD
KAEX 231934Z 2320/2418 16010KT P6SM VCSH SCT035 SCT050
     FM240200 16006KT P6SM BKN010
     FM240600 17007KT P6SM OVC007
     FM241500 19011KT P6SM VCSH BKN015=

USA.gov is the U.S. government's official web portal to all federal, state and local government web resources and services.